sensor_id;sensor_type;location;lat;lon;timestamp;temperature;humidity
5631;DHT22;2837;50.990;7.124;2022-09-09T05:01:38;19.40;99.90
5631;DHT22;2837;50.990;7.124;2022-09-09T05:04:04;19.40;99.90
5631;DHT22;2837;50.990;7.124;2022-09-09T05:06:29;19.40;99.90
5631;DHT22;2837;50.990;7.124;2022-09-09T05:08:56;19.40;99.90
5631;DHT22;2837;50.990;7.124;2022-09-09T05:11:25;19.40;99.90
5631;DHT22;2837;50.990;7.124;2022-09-09T05:13:53;19.40;99.90
5631;DHT22;2837;50.990;7.124;2022-09-09T05:16:20;19.40;99.90
5631;DHT22;2837;50.990;7.124;2022-09-09T05:18:46;19.40;99.90
5631;DHT22;2837;50.990;7.124;2022-09-09T05:21:13;19.40;99.90
5631;DHT22;2837;50.990;7.124;2022-09-09T05:23:39;19.40;99.90
5631;DHT22;2837;50.990;7.124;2022-09-09T05:26:06;19.40;99.90
5631;DHT22;2837;50.990;7.124;2022-09-09T05:28:34;19.40;99.90
5631;DHT22;2837;50.990;7.124;2022-09-09T05:31:08;19.30;99.90
5631;DHT22;2837;50.990;7.124;2022-09-09T05:33:34;19.30;99.90
5631;DHT22;2837;50.990;7.124;2022-09-09T05:36:02;19.30;99.90
5631;DHT22;2837;50.990;7.124;2022-09-09T05:38:29;19.30;99.90
5631;DHT22;2837;50.990;7.124;2022-09-09T05:40:55;19.30;99.90
5631;DHT22;2837;50.990;7.124;2022-09-09T05:43:24;19.30;99.90
5631;DHT22;2837;50.990;7.124;2022-09-09T05:46:11;19.30;99.90
5631;DHT22;2837;50.990;7.124;2022-09-09T05:48:38;19.30;99.90
5631;DHT22;2837;50.990;7.124;2022-09-09T05:51:06;19.30;99.90
5631;DHT22;2837;50.990;7.124;2022-09-09T05:53:32;19.30;99.90
5631;DHT22;2837;50.990;7.124;2022-09-09T05:56:01;19.30;99.90
5631;DHT22;2837;50.990;7.124;2022-09-09T05:58:32;19.30;99.90
5631;DHT22;2837;50.990;7.124;2022-09-09T06:01:13;19.30;99.90
5631;DHT22;2837;50.990;7.124;2022-09-09T06:03:40;19.30;99.90
5631;DHT22;2837;50.990;7.124;2022-09-09T06:06:08;19.30;99.90
5631;DHT22;2837;50.990;7.124;2022-09-09T06:08:36;19.30;99.90
5631;DHT22;2837;50.990;7.124;2022-09-09T06:11:05;19.30;99.90
5631;DHT22;2837;50.990;7.124;2022-09-09T06:13:31;19.30;99.90
5631;DHT22;2837;50.990;7.124;2022-09-09T06:15:57;19.30;99.90
5631;DHT22;2837;50.990;7.124;2022-09-09T06:18:24;19.30;99.90
5631;DHT22;2837;50.990;7.124;2022-09-09T06:23:21;19.20;99.90
5631;DHT22;2837;50.990;7.124;2022-09-09T06:25:47;19.30;99.90
5631;DHT22;2837;50.990;7.124;2022-09-09T06:28:12;19.20;99.90
5631;DHT22;2837;50.990;7.124;2022-09-09T06:30:39;19.30;99.90
5631;DHT22;2837;50.990;7.124;2022-09-09T06:33:05;19.30;99.90
5631;DHT22;2837;50.990;7.124;2022-09-09T06:35:30;19.30;99.90
5631;DHT22;2837;50.990;7.124;2022-09-09T06:37:56;19.30;99.90
5631;DHT22;2837;50.990;7.124;2022-09-09T06:40:24;19.30;99.90
5631;DHT22;2837;50.990;7.124;2022-09-09T06:42:50;19.30;99.90
5631;DHT22;2837;50.990;7.124;2022-09-09T06:45:16;19.30;99.90
5631;DHT22;2837;50.990;7.124;2022-09-09T06:47:43;19.30;99.90
5631;DHT22;2837;50.990;7.124;2022-09-09T06:50:09;19.30;99.90
5631;DHT22;2837;50.990;7.124;2022-09-09T06:52:35;19.30;99.90
5631;DHT22;2837;50.990;7.124;2022-09-09T06:55:01;19.30;99.90
5631;DHT22;2837;50.990;7.124;2022-09-09T06:57:28;19.30;99.90
5631;DHT22;2837;50.990;7.124;2022-09-09T06:59:53;19.30;99.90
5631;DHT22;2837;50.990;7.124;2022-09-09T07:02:19;19.30;99.90
5631;DHT22;2837;50.990;7.124;2022-09-09T07:04:45;19.30;99.90
5631;DHT22;2837;50.990;7.124;2022-09-09T07:07:10;19.30;99.90
5631;DHT22;2837;50.990;7.124;2022-09-09T07:09:38;19.30;99.90
5631;DHT22;2837;50.990;7.124;2022-09-09T07:12:05;19.20;99.90
5631;DHT22;2837;50.990;7.124;2022-09-09T07:14:31;19.20;99.90
5631;DHT22;2837;50.990;7.124;2022-09-09T07:16:58;19.30;99.90
5631;DHT22;2837;50.990;7.124;2022-09-09T07:19:23;19.30;99.90
5631;DHT22;2837;50.990;7.124;2022-09-09T07:21:49;19.30;99.90
5631;DHT22;2837;50.990;7.124;2022-09-09T07:24:15;19.30;99.90
5631;DHT22;2837;50.990;7.124;2022-09-09T07:26:41;19.30;99.90
5631;DHT22;2837;50.990;7.124;2022-09-09T07:29:07;19.30;99.90
5631;DHT22;2837;50.990;7.124;2022-09-09T07:31:35;19.40;99.90
5631;DHT22;2837;50.990;7.124;2022-09-09T07:34:03;19.40;99.90
5631;DHT22;2837;50.990;7.124;2022-09-09T07:36:34;19.50;99.90
5631;DHT22;2837;50.990;7.124;2022-09-09T07:39:05;19.50;99.90
5631;DHT22;2837;50.990;7.124;2022-09-09T07:41:40;19.60;99.90
5631;DHT22;2837;50.990;7.124;2022-09-09T07:44:16;19.60;99.90
5631;DHT22;2837;50.990;7.124;2022-09-09T07:46:42;19.70;99.90
5631;DHT22;2837;50.990;7.124;2022-09-09T07:49:09;19.70;99.90
5631;DHT22;2837;50.990;7.124;2022-09-09T07:51:37;19.70;99.90
5631;DHT22;2837;50.990;7.124;2022-09-09T07:54:05;19.80;99.90
5631;DHT22;2837;50.990;7.124;2022-09-09T07:56:32;19.80;99.90
5631;DHT22;2837;50.990;7.124;2022-09-09T07:58:58;19.80;99.90
5631;DHT22;2837;50.990;7.124;2022-09-09T08:01:30;19.80;99.90
5631;DHT22;2837;50.990;7.124;2022-09-09T08:04:02;19.90;99.90
5631;DHT22;2837;50.990;7.124;2022-09-09T08:06:30;19.90;99.90
5631;DHT22;2837;50.990;7.124;2022-09-09T08:08:56;19.90;99.90
5631;DHT22;2837;50.990;7.124;2022-09-09T08:11:24;19.90;99.90
5631;DHT22;2837;50.990;7.124;2022-09-09T08:13:51;19.90;99.90
5631;DHT22;2837;50.990;7.124;2022-09-09T08:16:19;19.90;99.90
5631;DHT22;2837;50.990;7.124;2022-09-09T08:18:47;19.90;99.90
5631;DHT22;2837;50.990;7.124;2022-09-09T08:21:16;19.90;99.90
5631;DHT22;2837;50.990;7.124;2022-09-09T08:23:44;19.90;99.90
5631;DHT22;2837;50.990;7.124;2022-09-09T08:26:20;19.90;99.90
5631;DHT22;2837;50.990;7.124;2022-09-09T08:28:48;20.00;99.90
5631;DHT22;2837;50.990;7.124;2022-09-09T08:31:17;20.00;99.90
5631;DHT22;2837;50.990;7.124;2022-09-09T08:33:44;20.10;99.90
5631;DHT22;2837;50.990;7.124;2022-09-09T08:36:16;20.10;99.90
5631;DHT22;2837;50.990;7.124;2022-09-09T08:38:42;20.10;99.90
5631;DHT22;2837;50.990;7.124;2022-09-09T08:53:05;20.30;99.90
5631;DHT22;2837;50.990;7.124;2022-09-09T08:55:53;20.30;99.90
5631;DHT22;2837;50.990;7.124;2022-09-09T08:58:27;20.30;99.90
5631;DHT22;2837;50.990;7.124;2022-09-09T09:11:49;20.50;99.90
5631;DHT22;2837;50.990;7.124;2022-09-09T09:14:22;20.50;99.90
5631;DHT22;2837;50.990;7.124;2022-09-09T09:17:03;20.50;99.90
5631;DHT22;2837;50.990;7.124;2022-09-09T09:19:31;20.50;99.90
5631;DHT22;2837;50.990;7.124;2022-09-09T09:22:16;20.50;99.90
5631;DHT22;2837;50.990;7.124;2022-09-09T09:24:55;20.50;99.90
5631;DHT22;2837;50.990;7.124;2022-09-09T09:29:51;20.60;99.90
5631;DHT22;2837;50.990;7.124;2022-09-09T09:32:20;20.70;99.90
5631;DHT22;2837;50.990;7.124;2022-09-09T09:34:56;20.70;99.90
5631;DHT22;2837;50.990;7.124;2022-09-09T09:37:31;20.80;99.90
5631;DHT22;2837;50.990;7.124;2022-09-09T09:40:08;20.90;99.90
5631;DHT22;2837;50.990;7.124;2022-09-09T09:42:34;20.90;99.90
5631;DHT22;2837;50.990;7.124;2022-09-09T09:45:33;20.90;99.90
5631;DHT22;2837;50.990;7.124;2022-09-09T09:48:09;20.90;99.90
5631;DHT22;2837;50.990;7.124;2022-09-09T09:50:35;20.90;99.90
5631;DHT22;2837;50.990;7.124;2022-09-09T09:53:03;20.80;99.90
5631;DHT22;2837;50.990;7.124;2022-09-09T09:55:32;20.80;99.90
5631;DHT22;2837;50.990;7.124;2022-09-09T09:58:04;20.70;99.90
5631;DHT22;2837;50.990;7.124;2022-09-09T10:00:30;20.70;99.90
5631;DHT22;2837;50.990;7.124;2022-09-09T10:02:56;20.70;99.90
5631;DHT22;2837;50.990;7.124;2022-09-09T10:05:24;20.70;99.90
5631;DHT22;2837;50.990;7.124;2022-09-09T10:08:24;20.70;99.90
5631;DHT22;2837;50.990;7.124;2022-09-09T10:35:14;20.90;99.90
5631;DHT22;2837;50.990;7.124;2022-09-09T10:38:12;20.90;99.90
5631;DHT22;2837;50.990;7.124;2022-09-09T10:43:57;20.80;99.90
5631;DHT22;2837;50.990;7.124;2022-09-09T10:46:46;20.80;99.90
5631;DHT22;2837;50.990;7.124;2022-09-09T10:52:37;20.80;99.90
5631;DHT22;2837;50.990;7.124;2022-09-09T10:55:13;20.80;99.90
5631;DHT22;2837;50.990;7.124;2022-09-09T10:57:50;20.90;99.90
5631;DHT22;2837;50.990;7.124;2022-09-09T11:00:47;20.90;99.90
5631;DHT22;2837;50.990;7.124;2022-09-09T11:03:23;20.90;99.90
5631;DHT22;2837;50.990;7.124;2022-09-09T11:06:01;20.90;99.90
5631;DHT22;2837;50.990;7.124;2022-09-09T11:08:30;20.90;99.90
5631;DHT22;2837;50.990;7.124;2022-09-09T11:13:42;21.00;99.90
5631;DHT22;2837;50.990;7.124;2022-09-09T11:19:19;21.00;99.90
5631;DHT22;2837;50.990;7.124;2022-09-09T11:21:49;21.00;99.90
5631;DHT22;2837;50.990;7.124;2022-09-09T11:26:54;21.10;99.90
5631;DHT22;2837;50.990;7.124;2022-09-09T11:32:24;21.20;99.90
5631;DHT22;2837;50.990;7.124;2022-09-09T11:40:28;21.20;99.90
5631;DHT22;2837;50.990;7.124;2022-09-09T11:45:32;21.20;99.90
5631;DHT22;2837;50.990;7.124;2022-09-09T11:48:00;21.20;99.90
5631;DHT22;2837;50.990;7.124;2022-09-09T11:53:18;21.20;99.90
5631;DHT22;2837;50.990;7.124;2022-09-09T11:55:46;21.20;99.90
5631;DHT22;2837;50.990;7.124;2022-09-09T12:00:43;21.20;99.90
5631;DHT22;2837;50.990;7.124;2022-09-09T12:03:41;21.20;99.90
5631;DHT22;2837;50.990;7.124;2022-09-09T12:08:43;21.30;99.90
5631;DHT22;2837;50.990;7.124;2022-09-09T12:11:10;21.30;99.90
5631;DHT22;2837;50.990;7.124;2022-09-09T12:13:37;21.30;99.90
5631;DHT22;2837;50.990;7.124;2022-09-09T12:16:03;21.30;99.90
5631;DHT22;2837;50.990;7.124;2022-09-09T12:18:38;21.30;99.90
5631;DHT22;2837;50.990;7.124;2022-09-09T12:24:00;21.30;99.90
5631;DHT22;2837;50.990;7.124;2022-09-09T12:26:53;21.30;99.90
5631;DHT22;2837;50.990;7.124;2022-09-09T12:29:35;21.20;99.90
5631;DHT22;2837;50.990;7.124;2022-09-09T12:32:10;21.20;99.90
5631;DHT22;2837;50.990;7.124;2022-09-09T12:37:17;21.20;99.90
5631;DHT22;2837;50.990;7.124;2022-09-09T12:39:55;21.20;99.90
5631;DHT22;2837;50.990;7.124;2022-09-09T12:42:21;21.20;99.90
5631;DHT22;2837;50.990;7.124;2022-09-09T12:44:58;21.20;99.90
5631;DHT22;2837;50.990;7.124;2022-09-09T12:49:58;21.30;99.90
5631;DHT22;2837;50.990;7.124;2022-09-09T12:52:29;21.30;99.90
5631;DHT22;2837;50.990;7.124;2022-09-09T12:54:55;21.30;99.90
5631;DHT22;2837;50.990;7.124;2022-09-09T12:57:23;21.30;99.90
5631;DHT22;2837;50.990;7.124;2022-09-09T13:00:07;21.30;99.90
5631;DHT22;2837;50.990;7.124;2022-09-09T13:02:35;21.20;99.90
5631;DHT22;2837;50.990;7.124;2022-09-09T13:05:15;21.20;99.90
5631;DHT22;2837;50.990;7.124;2022-09-09T13:07:42;21.10;99.90
5631;DHT22;2837;50.990;7.124;2022-09-09T13:10:11;21.10;99.90
5631;DHT22;2837;50.990;7.124;2022-09-09T13:12:37;21.10;99.90
5631;DHT22;2837;50.990;7.124;2022-09-09T13:15:03;21.10;99.90
5631;DHT22;2837;50.990;7.124;2022-09-09T13:17:29;21.10;99.90
5631;DHT22;2837;50.990;7.124;2022-09-09T13:19:55;21.20;99.90
5631;DHT22;2837;50.990;7.124;2022-09-09T13:22:51;21.20;99.90
5631;DHT22;2837;50.990;7.124;2022-09-09T13:25:28;21.20;99.90
5631;DHT22;2837;50.990;7.124;2022-09-09T13:27:59;21.30;99.90
5631;DHT22;2837;50.990;7.124;2022-09-09T13:35:35;21.40;99.90
5631;DHT22;2837;50.990;7.124;2022-09-09T13:38:14;21.40;99.90
5631;DHT22;2837;50.990;7.124;2022-09-09T13:40:40;21.40;99.90
5631;DHT22;2837;50.990;7.124;2022-09-09T13:43:15;21.40;99.90
5631;DHT22;2837;50.990;7.124;2022-09-09T13:45:53;21.40;99.90
5631;DHT22;2837;50.990;7.124;2022-09-09T13:48:19;21.40;99.90
5631;DHT22;2837;50.990;7.124;2022-09-09T13:51:03;21.40;99.90
5631;DHT22;2837;50.990;7.124;2022-09-09T13:53:30;21.50;99.90
5631;DHT22;2837;50.990;7.124;2022-09-09T13:55:57;21.50;99.90
5631;DHT22;2837;50.990;7.124;2022-09-09T13:58:24;21.50;99.90
5631;DHT22;2837;50.990;7.124;2022-09-09T14:00:51;21.50;99.90
5631;DHT22;2837;50.990;7.124;2022-09-09T14:03:17;21.50;99.90
5631;DHT22;2837;50.990;7.124;2022-09-09T14:05:44;21.50;99.90
5631;DHT22;2837;50.990;7.124;2022-09-09T14:08:15;21.60;99.90
5631;DHT22;2837;50.990;7.124;2022-09-09T14:10:41;21.50;99.90
5631;DHT22;2837;50.990;7.124;2022-09-09T14:13:06;21.60;99.90
5631;DHT22;2837;50.990;7.124;2022-09-09T14:15:33;21.60;99.90
5631;DHT22;2837;50.990;7.124;2022-09-09T14:17:59;21.60;99.90
5631;DHT22;2837;50.990;7.124;2022-09-09T14:20:24;21.60;99.90
5631;DHT22;2837;50.990;7.124;2022-09-09T14:22:50;21.70;99.90
5631;DHT22;2837;50.990;7.124;2022-09-09T14:25:15;21.60;99.90
5631;DHT22;2837;50.990;7.124;2022-09-09T14:27:41;21.60;99.90
5631;DHT22;2837;50.990;7.124;2022-09-09T14:30:08;21.60;99.90
5631;DHT22;2837;50.990;7.124;2022-09-09T14:32:33;21.60;99.90
5631;DHT22;2837;50.990;7.124;2022-09-09T14:34:59;21.50;99.90
5631;DHT22;2837;50.990;7.124;2022-09-09T14:37:27;21.50;99.90
5631;DHT22;2837;50.990;7.124;2022-09-09T14:39:53;21.50;99.90
5631;DHT22;2837;50.990;7.124;2022-09-09T14:42:20;21.50;99.90
5631;DHT22;2837;50.990;7.124;2022-09-09T14:44:46;21.50;99.90
5631;DHT22;2837;50.990;7.124;2022-09-09T14:47:13;21.40;99.90
5631;DHT22;2837;50.990;7.124;2022-09-09T14:49:38;21.50;99.90
5631;DHT22;2837;50.990;7.124;2022-09-09T14:52:04;21.40;99.90
5631;DHT22;2837;50.990;7.124;2022-09-09T14:54:33;21.40;99.90
5631;DHT22;2837;50.990;7.124;2022-09-09T14:56:58;21.30;99.90
5631;DHT22;2837;50.990;7.124;2022-09-09T14:59:24;21.30;99.90
5631;DHT22;2837;50.990;7.124;2022-09-09T15:01:50;21.30;99.90
5631;DHT22;2837;50.990;7.124;2022-09-09T15:04:15;21.20;99.90
5631;DHT22;2837;50.990;7.124;2022-09-09T15:06:42;21.20;99.90
5631;DHT22;2837;50.990;7.124;2022-09-09T15:09:09;21.10;99.90
5631;DHT22;2837;50.990;7.124;2022-09-09T15:11:36;21.00;99.90
5631;DHT22;2837;50.990;7.124;2022-09-09T15:14:04;21.00;99.90
5631;DHT22;2837;50.990;7.124;2022-09-09T15:16:30;20.90;99.90
5631;DHT22;2837;50.990;7.124;2022-09-09T15:18:59;20.80;99.90
5631;DHT22;2837;50.990;7.124;2022-09-09T15:21:27;20.70;99.90
5631;DHT22;2837;50.990;7.124;2022-09-09T15:23:53;20.70;99.90
5631;DHT22;2837;50.990;7.124;2022-09-09T15:26:19;20.70;99.90
5631;DHT22;2837;50.990;7.124;2022-09-09T15:28:46;20.70;99.90
5631;DHT22;2837;50.990;7.124;2022-09-09T15:31:17;20.70;99.90
5631;DHT22;2837;50.990;7.124;2022-09-09T15:33:50;20.70;99.90
5631;DHT22;2837;50.990;7.124;2022-09-09T15:36:24;20.70;99.90
5631;DHT22;2837;50.990;7.124;2022-09-09T15:38:51;20.80;99.90
5631;DHT22;2837;50.990;7.124;2022-09-09T15:41:18;20.80;99.90
5631;DHT22;2837;50.990;7.124;2022-09-09T15:43:55;20.80;99.90
5631;DHT22;2837;50.990;7.124;2022-09-09T15:46:32;20.80;99.90
5631;DHT22;2837;50.990;7.124;2022-09-09T15:49:04;20.80;99.90
5631;DHT22;2837;50.990;7.124;2022-09-09T15:51:30;20.80;99.90
5631;DHT22;2837;50.990;7.124;2022-09-09T15:53:57;20.80;99.90
5631;DHT22;2837;50.990;7.124;2022-09-09T15:56:27;20.80;99.90
5631;DHT22;2837;50.990;7.124;2022-09-09T15:58:55;20.80;99.90
5631;DHT22;2837;50.990;7.124;2022-09-09T16:01:20;20.80;99.90
5631;DHT22;2837;50.990;7.124;2022-09-09T16:03:46;20.80;99.90
5631;DHT22;2837;50.990;7.124;2022-09-09T16:06:17;20.80;99.90
5631;DHT22;2837;50.990;7.124;2022-09-09T16:08:45;20.70;99.90
5631;DHT22;2837;50.990;7.124;2022-09-09T16:11:16;20.70;99.90
5631;DHT22;2837;50.990;7.124;2022-09-09T16:13:43;20.70;99.90
5631;DHT22;2837;50.990;7.124;2022-09-09T16:16:11;20.70;99.90
5631;DHT22;2837;50.990;7.124;2022-09-09T16:18:39;20.60;99.90
5631;DHT22;2837;50.990;7.124;2022-09-09T16:21:06;20.60;99.90
5631;DHT22;2837;50.990;7.124;2022-09-09T16:23:34;20.60;99.90
5631;DHT22;2837;50.990;7.124;2022-09-09T16:25:59;20.50;99.90
5631;DHT22;2837;50.990;7.124;2022-09-09T16:28:25;20.50;99.90
5631;DHT22;2837;50.990;7.124;2022-09-09T16:30:51;20.50;99.90
5631;DHT22;2837;50.990;7.124;2022-09-09T16:33:17;20.40;99.90
5631;DHT22;2837;50.990;7.124;2022-09-09T16:35:43;20.30;99.90
5631;DHT22;2837;50.990;7.124;2022-09-09T16:38:09;20.30;99.90
5631;DHT22;2837;50.990;7.124;2022-09-09T16:40:36;20.30;99.90
5631;DHT22;2837;50.990;7.124;2022-09-09T16:43:05;20.30;99.90
5631;DHT22;2837;50.990;7.124;2022-09-09T16:45:31;20.20;99.90
5631;DHT22;2837;50.990;7.124;2022-09-09T16:48:01;20.20;99.90
5631;DHT22;2837;50.990;7.124;2022-09-09T16:50:27;20.20;99.90
5631;DHT22;2837;50.990;7.124;2022-09-09T16:52:52;20.20;99.90
5631;DHT22;2837;50.990;7.124;2022-09-09T16:55:18;20.20;99.90
5631;DHT22;2837;50.990;7.124;2022-09-09T16:57:46;20.20;99.90
5631;DHT22;2837;50.990;7.124;2022-09-09T17:00:14;20.20;99.90
5631;DHT22;2837;50.990;7.124;2022-09-09T17:02:42;20.20;99.90
5631;DHT22;2837;50.990;7.124;2022-09-09T17:05:07;20.20;99.90
5631;DHT22;2837;50.990;7.124;2022-09-09T17:07:33;20.20;99.90
5631;DHT22;2837;50.990;7.124;2022-09-09T17:09:58;20.20;99.90
5631;DHT22;2837;50.990;7.124;2022-09-09T17:12:24;20.20;99.90
5631;DHT22;2837;50.990;7.124;2022-09-09T17:14:50;20.20;99.90
5631;DHT22;2837;50.990;7.124;2022-09-09T17:17:16;20.20;99.90
5631;DHT22;2837;50.990;7.124;2022-09-09T17:19:42;20.20;99.90
5631;DHT22;2837;50.990;7.124;2022-09-09T17:22:08;20.20;99.90
5631;DHT22;2837;50.990;7.124;2022-09-09T17:24:34;20.20;99.90
5631;DHT22;2837;50.990;7.124;2022-09-09T17:26:59;20.20;99.90
5631;DHT22;2837;50.990;7.124;2022-09-09T17:29:26;20.20;99.90
5631;DHT22;2837;50.990;7.124;2022-09-09T17:31:52;20.20;99.90
5631;DHT22;2837;50.990;7.124;2022-09-09T17:34:18;20.20;99.90
5631;DHT22;2837;50.990;7.124;2022-09-09T17:36:43;20.10;99.90
5631;DHT22;2837;50.990;7.124;2022-09-09T17:39:09;20.10;99.90
5631;DHT22;2837;50.990;7.124;2022-09-09T17:41:39;20.10;99.90
5631;DHT22;2837;50.990;7.124;2022-09-09T17:44:06;20.10;99.90
5631;DHT22;2837;50.990;7.124;2022-09-09T17:46:34;20.00;99.90
5631;DHT22;2837;50.990;7.124;2022-09-09T17:49:05;20.00;99.90
5631;DHT22;2837;50.990;7.124;2022-09-09T17:51:33;19.90;99.90
5631;DHT22;2837;50.990;7.124;2022-09-09T17:54:01;19.90;99.90
5631;DHT22;2837;50.990;7.124;2022-09-09T17:56:30;19.90;99.90
5631;DHT22;2837;50.990;7.124;2022-09-09T17:58:57;19.80;99.90
5631;DHT22;2837;50.990;7.124;2022-09-09T18:01:25;19.80;99.90
5631;DHT22;2837;50.990;7.124;2022-09-09T18:03:53;19.80;99.90
5631;DHT22;2837;50.990;7.124;2022-09-09T18:06:27;19.80;99.90
5631;DHT22;2837;50.990;7.124;2022-09-09T18:08:56;19.80;99.90
5631;DHT22;2837;50.990;7.124;2022-09-09T18:11:24;19.90;99.90
5631;DHT22;2837;50.990;7.124;2022-09-09T18:13:55;19.90;99.90
5631;DHT22;2837;50.990;7.124;2022-09-09T18:16:23;19.80;99.90
5631;DHT22;2837;50.990;7.124;2022-09-09T18:18:49;19.80;99.90
5631;DHT22;2837;50.990;7.124;2022-09-09T18:21:16;19.80;99.90
5631;DHT22;2837;50.990;7.124;2022-09-09T18:23:44;19.80;99.90
5631;DHT22;2837;50.990;7.124;2022-09-09T18:26:16;19.80;99.90
5631;DHT22;2837;50.990;7.124;2022-09-09T18:28:46;19.80;99.90
5631;DHT22;2837;50.990;7.124;2022-09-09T18:31:14;19.80;99.90
5631;DHT22;2837;50.990;7.124;2022-09-09T18:33:42;19.80;99.90
5631;DHT22;2837;50.990;7.124;2022-09-09T18:36:10;19.80;99.90
5631;DHT22;2837;50.990;7.124;2022-09-09T18:38:36;19.80;99.90
5631;DHT22;2837;50.990;7.124;2022-09-09T18:41:24;19.80;99.90
5631;DHT22;2837;50.990;7.124;2022-09-09T18:43:55;19.80;99.90
5631;DHT22;2837;50.990;7.124;2022-09-09T18:46:22;19.80;99.90
5631;DHT22;2837;50.990;7.124;2022-09-09T18:48:48;19.80;99.90
5631;DHT22;2837;50.990;7.124;2022-09-09T18:51:19;19.80;99.90
5631;DHT22;2837;50.990;7.124;2022-09-09T18:54:00;19.80;99.90
5631;DHT22;2837;50.990;7.124;2022-09-09T18:56:26;19.70;99.90
5631;DHT22;2837;50.990;7.124;2022-09-09T18:58:55;19.80;99.90
5631;DHT22;2837;50.990;7.124;2022-09-09T19:01:23;19.70;99.90
5631;DHT22;2837;50.990;7.124;2022-09-09T19:03:49;19.70;99.90
5631;DHT22;2837;50.990;7.124;2022-09-09T19:06:18;19.70;99.90
5631;DHT22;2837;50.990;7.124;2022-09-09T19:08:45;19.70;99.90
5631;DHT22;2837;50.990;7.124;2022-09-09T19:11:14;19.60;99.90
5631;DHT22;2837;50.990;7.124;2022-09-09T19:13:58;19.60;99.90
5631;DHT22;2837;50.990;7.124;2022-09-09T19:16:28;19.60;99.90
5631;DHT22;2837;50.990;7.124;2022-09-09T19:18:56;19.50;99.90
5631;DHT22;2837;50.990;7.124;2022-09-09T19:21:27;19.60;99.90
5631;DHT22;2837;50.990;7.124;2022-09-09T19:23:58;19.50;99.90
5631;DHT22;2837;50.990;7.124;2022-09-09T19:26:29;19.50;99.90
5631;DHT22;2837;50.990;7.124;2022-09-09T19:28:57;19.50;99.90
5631;DHT22;2837;50.990;7.124;2022-09-09T19:31:23;19.50;99.90
5631;DHT22;2837;50.990;7.124;2022-09-09T19:33:49;19.50;99.90
5631;DHT22;2837;50.990;7.124;2022-09-09T19:36:17;19.50;99.90
5631;DHT22;2837;50.990;7.124;2022-09-09T19:38:44;19.40;99.90
5631;DHT22;2837;50.990;7.124;2022-09-09T19:41:19;19.40;99.90
5631;DHT22;2837;50.990;7.124;2022-09-09T19:43:45;19.40;99.90
5631;DHT22;2837;50.990;7.124;2022-09-09T19:46:12;19.30;99.90
5631;DHT22;2837;50.990;7.124;2022-09-09T19:48:40;19.30;99.90
5631;DHT22;2837;50.990;7.124;2022-09-09T19:51:14;19.40;99.90
5631;DHT22;2837;50.990;7.124;2022-09-09T19:53:45;19.30;99.90
5631;DHT22;2837;50.990;7.124;2022-09-09T19:56:15;19.30;99.90
5631;DHT22;2837;50.990;7.124;2022-09-09T19:58:41;19.40;99.90
5631;DHT22;2837;50.990;7.124;2022-09-09T20:03:36;19.30;99.90
5631;DHT22;2837;50.990;7.124;2022-09-09T20:06:04;19.30;99.90
5631;DHT22;2837;50.990;7.124;2022-09-09T20:08:30;19.30;99.90
5631;DHT22;2837;50.990;7.124;2022-09-09T20:10:56;19.20;99.90
5631;DHT22;2837;50.990;7.124;2022-09-09T20:13:22;19.20;99.90
5631;DHT22;2837;50.990;7.124;2022-09-09T20:16:02;19.20;99.90
5631;DHT22;2837;50.990;7.124;2022-09-09T20:18:32;19.20;99.90
5631;DHT22;2837;50.990;7.124;2022-09-09T20:21:01;19.30;99.90
5631;DHT22;2837;50.990;7.124;2022-09-09T20:23:27;19.30;99.90
5631;DHT22;2837;50.990;7.124;2022-09-09T20:25:53;19.20;99.90
5631;DHT22;2837;50.990;7.124;2022-09-09T20:28:19;19.20;99.90
5631;DHT22;2837;50.990;7.124;2022-09-09T20:30:48;19.20;99.90
5631;DHT22;2837;50.990;7.124;2022-09-09T20:33:16;19.20;99.90
5631;DHT22;2837;50.990;7.124;2022-09-09T20:35:43;19.20;99.90
5631;DHT22;2837;50.990;7.124;2022-09-09T20:38:09;19.20;99.90
5631;DHT22;2837;50.990;7.124;2022-09-09T20:40:35;19.20;99.90
5631;DHT22;2837;50.990;7.124;2022-09-09T20:43:02;19.20;99.90
5631;DHT22;2837;50.990;7.124;2022-09-09T20:45:28;19.10;99.90
5631;DHT22;2837;50.990;7.124;2022-09-09T20:47:54;19.20;99.90
5631;DHT22;2837;50.990;7.124;2022-09-09T20:50:21;19.20;99.90
5631;DHT22;2837;50.990;7.124;2022-09-09T20:52:47;19.20;99.90
5631;DHT22;2837;50.990;7.124;2022-09-09T20:55:12;19.20;99.90
5631;DHT22;2837;50.990;7.124;2022-09-09T20:57:39;19.20;99.90
